Time;durP1;ratioP1;P1;durP2;ratioP2;P2;SDS_P1;SDS_P2;PMS_P1;PMS_P2;Temp;Humidity;BMP_temperature;BMP_pressure;BME280_temperature;BME280_humidity;BME280_pressure;Samples;Min_cycle;Max_cycle;Signal;HPM_P1;HPM_P2
2022/07/23 00:00:22;;;;;;;;;;;15.20;99.90;;;;;;5073973;28;20627;-69
2022/07/23 00:02:49;;;;;;;;;;;15.20;99.90;;;;;;5074327;28;20027;-70
2022/07/23 00:05:16;;;;;;;;;;;15.20;99.90;;;;;;5081905;28;19967;-69
2022/07/23 00:07:42;;;;;;;;;;;15.20;99.90;;;;;;5074664;28;19938;-69
2022/07/23 00:10:10;;;;;;;;;;;15.20;99.90;;;;;;5074967;28;19990;-70
2022/07/23 00:12:37;;;;;;;;;;;15.20;99.90;;;;;;5071773;28;20001;-70
2022/07/23 00:15:04;;;;;;;;;;;15.20;99.90;;;;;;5075184;28;20346;-70
2022/07/23 00:17:32;;;;;;;;;;;15.10;99.90;;;;;;5073277;28;20019;-71
2022/07/23 00:19:59;;;;;;;;;;;15.20;99.90;;;;;;5076206;28;20388;-69
2022/07/23 00:22:25;;;;;;;;;;;15.20;99.90;;;;;;5073652;28;20050;-69
2022/07/23 00:24:52;;;;;;;;;;;15.20;99.90;;;;;;5074282;28;20461;-70
2022/07/23 00:27:19;;;;;;;;;;;15.30;99.90;;;;;;5075204;28;20023;-70
2022/07/23 00:29:46;;;;;;;;;;;15.40;99.90;;;;;;5077729;28;20015;-70
2022/07/23 00:32:12;;;;;;;;;;;15.30;99.90;;;;;;5076238;28;19928;-70
2022/07/23 00:34:41;;;;;;;;;;;15.20;99.90;;;;;;5074877;28;20029;-70
2022/07/23 00:37:07;;;;;;;;;;;15.10;99.90;;;;;;5076893;28;20058;-72
2022/07/23 00:39:34;;;;;;;;;;;14.90;99.90;;;;;;5073221;28;19928;-71
2022/07/23 00:42:01;;;;;;;;;;;14.90;99.90;;;;;;5074673;28;19986;-71
2022/07/23 00:44:28;;;;;;;;;;;14.90;99.90;;;;;;5077796;28;20015;-69
2022/07/23 00:46:56;;;;;;;;;;;14.90;99.90;;;;;;5072482;28;19989;-71
2022/07/23 00:49:23;;;;;;;;;;;15.00;99.90;;;;;;5077118;28;20006;-71
2022/07/23 00:51:51;;;;;;;;;;;14.90;99.90;;;;;;5076121;28;20691;-70
2022/07/23 00:54:18;;;;;;;;;;;14.70;99.90;;;;;;5077333;28;20367;-70
2022/07/23 00:56:46;;;;;;;;;;;14.60;99.90;;;;;;5074998;28;20449;-70
2022/07/23 00:59:13;;;;;;;;;;;14.50;99.90;;;;;;5073012;28;20494;-70
2022/07/23 01:01:40;;;;;;;;;;;14.50;99.90;;;;;;5074243;28;20007;-70
2022/07/23 01:04:06;;;;;;;;;;;14.60;99.90;;;;;;5074801;28;19931;-70
2022/07/23 01:06:35;;;;;;;;;;;14.50;99.90;;;;;;5081617;28;20023;-69
2022/07/23 01:09:03;;;;;;;;;;;14.50;99.90;;;;;;5076767;28;20395;-69
2022/07/23 01:11:30;;;;;;;;;;;14.50;99.90;;;;;;5074157;28;20027;-71
2022/07/23 01:13:57;;;;;;;;;;;14.50;99.90;;;;;;5069654;28;19932;-69
2022/07/23 01:16:24;;;;;;;;;;;14.50;99.90;;;;;;5071258;28;20024;-69
2022/07/23 01:18:51;;;;;;;;;;;14.50;99.90;;;;;;5072758;28;20039;-69
2022/07/23 01:21:18;;;;;;;;;;;14.50;99.90;;;;;;5075795;28;20001;-69
2022/07/23 01:23:46;;;;;;;;;;;14.50;99.90;;;;;;5074269;28;19932;-69
2022/07/23 01:26:15;;;;;;;;;;;14.40;99.90;;;;;;5075039;28;19967;-68
2022/07/23 01:28:42;;;;;;;;;;;14.40;99.90;;;;;;5073967;28;19952;-68
2022/07/23 01:31:09;;;;;;;;;;;14.30;99.90;;;;;;5075226;28;19928;-69
2022/07/23 01:33:35;;;;;;;;;;;14.30;99.90;;;;;;5073254;28;19928;-69
2022/07/23 01:36:02;;;;;;;;;;;14.30;99.90;;;;;;5073047;28;20051;-69
2022/07/23 01:38:29;;;;;;;;;;;14.30;99.90;;;;;;5074951;28;19932;-70
2022/07/23 01:40:57;;;;;;;;;;;14.40;99.90;;;;;;5075038;28;19937;-70
2022/07/23 01:43:23;;;;;;;;;;;14.40;99.90;;;;;;5073814;28;20430;-69
2022/07/23 01:45:50;;;;;;;;;;;14.50;99.90;;;;;;5073675;28;20026;-70
2022/07/23 01:48:17;;;;;;;;;;;14.40;99.90;;;;;;5073591;28;20018;-69
2022/07/23 01:50:44;;;;;;;;;;;14.40;99.90;;;;;;5077283;28;20298;-69
2022/07/23 01:53:10;;;;;;;;;;;14.20;99.90;;;;;;5071769;28;19985;-69
2022/07/23 01:55:37;;;;;;;;;;;14.20;99.90;;;;;;5073990;28;19979;-69
2022/07/23 01:58:06;;;;;;;;;;;14.10;99.90;;;;;;5074978;28;19967;-69
2022/07/23 02:00:33;;;;;;;;;;;14.10;99.90;;;;;;5077572;28;19939;-69
2022/07/23 02:02:59;;;;;;;;;;;14.10;99.90;;;;;;5077436;28;19955;-70
2022/07/23 02:05:28;;;;;;;;;;;14.00;99.90;;;;;;5079507;28;20389;-69
2022/07/23 02:07:55;;;;;;;;;;;14.00;99.90;;;;;;5078224;28;20005;-69
2022/07/23 02:10:22;;;;;;;;;;;14.00;99.90;;;;;;5075551;28;19928;-70
2022/07/23 02:12:49;;;;;;;;;;;14.00;99.90;;;;;;5077811;28;20019;-70
2022/07/23 02:15:17;;;;;;;;;;;13.90;99.90;;;;;;5079715;28;19933;-70
2022/07/23 02:17:43;;;;;;;;;;;14.00;99.90;;;;;;5078235;28;19929;-71
2022/07/23 02:20:11;;;;;;;;;;;14.10;99.90;;;;;;5077114;28;19932;-70
2022/07/23 02:22:38;;;;;;;;;;;14.00;99.90;;;;;;5073303;28;20312;-70
2022/07/23 02:25:05;;;;;;;;;;;13.90;99.90;;;;;;5078413;28;20474;-69
2022/07/23 02:27:32;;;;;;;;;;;13.90;99.90;;;;;;5075126;28;20030;-69
2022/07/23 02:29:59;;;;;;;;;;;13.90;99.90;;;;;;5077884;28;20417;-70
2022/07/23 02:32:29;;;;;;;;;;;14.00;99.90;;;;;;5073068;28;19990;-69
2022/07/23 02:34:56;;;;;;;;;;;14.00;99.90;;;;;;5078616;28;19931;-68
2022/07/23 02:37:22;;;;;;;;;;;14.00;99.90;;;;;;5073793;28;19930;-70
2022/07/23 02:39:50;;;;;;;;;;;14.10;99.90;;;;;;5077586;28;20298;-70
2022/07/23 02:42:17;;;;;;;;;;;14.10;99.90;;;;;;5077018;28;20162;-69
2022/07/23 02:44:44;;;;;;;;;;;14.10;99.90;;;;;;5077597;28;19929;-69
2022/07/23 02:47:10;;;;;;;;;;;14.10;99.90;;;;;;5075583;28;19930;-69
2022/07/23 02:49:39;;;;;;;;;;;14.10;99.90;;;;;;5077516;28;19930;-67
2022/07/23 02:52:05;;;;;;;;;;;14.00;99.90;;;;;;5075541;28;19967;-69
2022/07/23 02:54:32;;;;;;;;;;;13.80;99.90;;;;;;5075528;28;20019;-70
2022/07/23 02:56:59;;;;;;;;;;;13.70;99.90;;;;;;5076442;28;20031;-69
2022/07/23 02:59:25;;;;;;;;;;;13.70;99.90;;;;;;5075852;28;19963;-70
2022/07/23 03:01:52;;;;;;;;;;;13.80;99.90;;;;;;5074849;28;20364;-69
2022/07/23 03:04:19;;;;;;;;;;;13.80;99.90;;;;;;5075514;28;20026;-69
2022/07/23 03:06:47;;;;;;;;;;;13.80;99.90;;;;;;5076956;28;20015;-69
2022/07/23 03:09:13;;;;;;;;;;;13.80;99.90;;;;;;5076728;28;20032;-70
2022/07/23 03:11:40;;;;;;;;;;;13.80;99.90;;;;;;5077080;28;19924;-70
2022/07/23 03:14:07;;;;;;;;;;;13.80;99.90;;;;;;5073122;28;20019;-68
2022/07/23 03:16:34;;;;;;;;;;;13.80;99.90;;;;;;5078616;28;20022;-70
2022/07/23 03:19:00;;;;;;;;;;;13.80;99.90;;;;;;5073382;28;21809;-70
2022/07/23 03:21:27;;;;;;;;;;;13.70;99.90;;;;;;5076323;28;20011;-69
2022/07/23 03:23:55;;;;;;;;;;;13.60;99.90;;;;;;5071149;28;19928;-70
2022/07/23 03:26:25;;;;;;;;;;;13.50;99.90;;;;;;5077354;28;19930;-69
2022/07/23 03:28:52;;;;;;;;;;;13.50;99.90;;;;;;5075843;28;19967;-69
2022/07/23 03:31:18;;;;;;;;;;;13.50;99.90;;;;;;5077445;28;19947;-69
2022/07/23 03:33:45;;;;;;;;;;;13.50;99.90;;;;;;5084472;28;19924;-68
2022/07/23 03:36:12;;;;;;;;;;;13.50;99.90;;;;;;5084251;28;19955;-70
2022/07/23 03:38:38;;;;;;;;;;;13.60;99.90;;;;;;5089178;28;20040;-69
2022/07/23 03:41:07;;;;;;;;;;;13.60;99.90;;;;;;5088230;28;19975;-69
2022/07/23 03:43:34;;;;;;;;;;;13.60;99.90;;;;;;5089651;28;20022;-69
2022/07/23 03:46:00;;;;;;;;;;;13.60;99.90;;;;;;5086625;28;19924;-70
2022/07/23 03:48:27;;;;;;;;;;;13.60;99.90;;;;;;5091154;28;19931;-69
2022/07/23 03:50:54;;;;;;;;;;;13.70;99.90;;;;;;5087479;28;19928;-70
2022/07/23 03:53:21;;;;;;;;;;;13.70;99.90;;;;;;5086957;28;19931;-69
2022/07/23 03:55:47;;;;;;;;;;;13.60;99.90;;;;;;5083449;28;19932;-70
2022/07/23 03:58:15;;;;;;;;;;;13.50;99.90;;;;;;5076348;28;19969;-69
2022/07/23 04:00:42;;;;;;;;;;;13.40;99.90;;;;;;5082108;28;19924;-70
2022/07/23 04:03:09;;;;;;;;;;;13.40;99.90;;;;;;5080931;28;20014;-68
2022/07/23 04:05:35;;;;;;;;;;;13.40;99.90;;;;;;5085053;28;20024;-70
2022/07/23 04:08:02;;;;;;;;;;;13.40;99.90;;;;;;5074765;28;19924;-70
2022/07/23 04:10:29;;;;;;;;;;;13.40;99.90;;;;;;5082800;28;19967;-71
2022/07/23 04:12:55;;;;;;;;;;;13.40;99.90;;;;;;5084813;28;20349;-69
2022/07/23 04:15:24;;;;;;;;;;;13.40;99.90;;;;;;5083262;28;19976;-69
2022/07/23 04:17:50;;;;;;;;;;;13.40;99.90;;;;;;5084959;28;20019;-69
2022/07/23 04:20:17;;;;;;;;;;;13.30;99.90;;;;;;5089326;28;19924;-69
2022/07/23 04:22:44;;;;;;;;;;;13.40;99.90;;;;;;5085085;28;20391;-69
2022/07/23 04:25:10;;;;;;;;;;;13.40;99.90;;;;;;5071415;28;20015;-70
2022/07/23 04:27:37;;;;;;;;;;;13.40;99.90;;;;;;5077094;28;19967;-70
2022/07/23 04:30:04;;;;;;;;;;;13.40;99.90;;;;;;5073308;28;19939;-70
2022/07/23 04:32:32;;;;;;;;;;;13.40;99.90;;;;;;5076250;28;19935;-70
2022/07/23 04:34:59;;;;;;;;;;;13.50;99.90;;;;;;5088553;28;20077;-69
2022/07/23 04:37:26;;;;;;;;;;;13.50;99.90;;;;;;5088809;28;19974;-70
2022/07/23 04:39:52;;;;;;;;;;;13.50;99.90;;;;;;5074021;28;21355;-69
2022/07/23 04:42:19;;;;;;;;;;;13.50;99.90;;;;;;5071923;28;19960;-70
2022/07/23 04:44:46;;;;;;;;;;;13.60;99.90;;;;;;5088106;28;20379;-68
2022/07/23 04:47:13;;;;;;;;;;;13.60;99.90;;;;;;5078174;28;19952;-68
2022/07/23 04:49:41;;;;;;;;;;;13.70;99.90;;;;;;5081147;28;20448;-68
2022/07/23 04:52:07;;;;;;;;;;;13.80;99.90;;;;;;5075745;28;19974;-68
2022/07/23 04:54:34;;;;;;;;;;;13.80;99.90;;;;;;5083523;28;20388;-68
2022/07/23 04:57:01;;;;;;;;;;;14.00;99.90;;;;;;5079652;28;19931;-68
2022/07/23 04:59:27;;;;;;;;;;;13.90;99.90;;;;;;5079659;28;19928;-68
2022/07/23 05:01:54;;;;;;;;;;;14.00;99.90;;;;;;5077574;28;19959;-68
2022/07/23 05:04:21;;;;;;;;;;;14.10;99.90;;;;;;5087036;28;19924;-69
2022/07/23 05:06:49;;;;;;;;;;;14.10;99.90;;;;;;5089862;28;20462;-68
2022/07/23 05:09:15;;;;;;;;;;;14.20;99.90;;;;;;5075535;28;19928;-68
2022/07/23 05:11:42;;;;;;;;;;;14.30;99.90;;;;;;5073460;28;20341;-68
2022/07/23 05:14:12;;;;;;;;;;;14.40;99.90;;;;;;5072244;28;19924;-68
2022/07/23 05:16:38;;;;;;;;;;;14.50;99.90;;;;;;5082465;28;19924;-70
2022/07/23 05:19:05;;;;;;;;;;;14.50;99.90;;;;;;5079813;28;19975;-69
2022/07/23 05:21:32;;;;;;;;;;;14.70;99.90;;;;;;5076055;28;19928;-72
2022/07/23 05:24:00;;;;;;;;;;;14.90;99.90;;;;;;5077277;28;19974;-73
2022/07/23 05:26:27;;;;;;;;;;;15.00;99.90;;;;;;5079881;28;19939;-72
2022/07/23 05:28:53;;;;;;;;;;;15.20;99.90;;;;;;5074529;28;19928;-70
2022/07/23 05:31:20;;;;;;;;;;;15.30;99.90;;;;;;5071791;28;20016;-69
2022/07/23 05:33:47;;;;;;;;;;;15.60;99.90;;;;;;5082532;28;20016;-70
2022/07/23 05:36:13;;;;;;;;;;;15.70;99.90;;;;;;5086760;28;20026;-70
2022/07/23 05:38:40;;;;;;;;;;;15.80;99.90;;;;;;5086230;28;20387;-70
2022/07/23 05:41:08;;;;;;;;;;;15.80;99.90;;;;;;5080270;28;19977;-70
2022/07/23 05:43:35;;;;;;;;;;;15.80;99.90;;;;;;5076594;28;19935;-70
2022/07/23 05:46:02;;;;;;;;;;;15.70;99.90;;;;;;5077129;28;19924;-71
2022/07/23 05:48:28;;;;;;;;;;;15.80;99.90;;;;;;5076759;28;20026;-70
2022/07/23 05:50:55;;;;;;;;;;;15.80;99.90;;;;;;5074660;28;19925;-70
2022/07/23 05:53:22;;;;;;;;;;;15.80;99.90;;;;;;5082880;28;20015;-70
2022/07/23 05:55:49;;;;;;;;;;;15.90;99.90;;;;;;5095763;28;20014;-70
2022/07/23 05:58:17;;;;;;;;;;;15.90;99.90;;;;;;5081341;28;20011;-70
2022/07/23 06:00:43;;;;;;;;;;;16.10;99.90;;;;;;5075542;28;19998;-70
2022/07/23 06:03:10;;;;;;;;;;;16.20;99.90;;;;;;5082089;28;20015;-70
2022/07/23 06:05:37;;;;;;;;;;;16.50;99.90;;;;;;5082091;28;19932;-70
2022/07/23 06:08:04;;;;;;;;;;;17.20;99.90;;;;;;5074756;28;19974;-70
2022/07/23 06:10:31;;;;;;;;;;;17.90;99.90;;;;;;5075240;28;19925;-71
2022/07/23 06:12:57;;;;;;;;;;;19.00;99.90;;;;;;5077401;28;20391;-71
2022/07/23 06:15:25;;;;;;;;;;;19.10;99.90;;;;;;5075479;28;20011;-70
2022/07/23 06:17:52;;;;;;;;;;;19.20;99.90;;;;;;5079815;28;19935;-70
2022/07/23 06:20:19;;;;;;;;;;;19.30;99.90;;;;;;5084510;28;20005;-71
2022/07/23 06:22:45;;;;;;;;;;;19.60;99.90;;;;;;5078094;28;20456;-71
2022/07/23 06:25:12;;;;;;;;;;;20.00;99.90;;;;;;5086080;28;20002;-71
2022/07/23 06:27:39;;;;;;;;;;;20.30;99.90;;;;;;5076934;28;19946;-71
2022/07/23 06:30:08;;;;;;;;;;;20.20;99.90;;;;;;5095051;28;19978;-70
2022/07/23 06:32:36;;;;;;;;;;;20.50;99.90;;;;;;5090232;28;19940;-72
2022/07/23 06:35:03;;;;;;;;;;;20.40;99.90;;;;;;5074410;28;19957;-71
2022/07/23 06:37:29;;;;;;;;;;;19.60;99.90;;;;;;5074493;28;19985;-71
2022/07/23 06:39:56;;;;;;;;;;;19.30;99.90;;;;;;5078867;28;19924;-71
2022/07/23 06:42:23;;;;;;;;;;;18.60;99.90;;;;;;5092584;28;19924;-71
2022/07/23 06:44:50;;;;;;;;;;;18.00;99.90;;;;;;5094901;28;20303;-71
2022/07/23 06:47:16;;;;;;;;;;;17.90;99.90;;;;;;5082024;28;19928;-71
2022/07/23 06:49:44;;;;;;;;;;;18.00;99.90;;;;;;5094640;28;19924;-71
2022/07/23 06:52:11;;;;;;;;;;;18.00;99.90;;;;;;5093050;28;20011;-69
2022/07/23 06:54:38;;;;;;;;;;;18.50;99.90;;;;;;5093306;28;19979;-70
2022/07/23 06:57:05;;;;;;;;;;;20.50;99.90;;;;;;5092712;28;19963;-71
2022/07/23 06:59:32;;;;;;;;;;;22.20;99.90;;;;;;5092152;28;19974;-71
2022/07/23 07:01:59;;;;;;;;;;;23.00;99.60;;;;;;5094840;28;20019;-71
2022/07/23 07:04:26;;;;;;;;;;;23.10;98.80;;;;;;5092974;28;19938;-72
2022/07/23 07:06:54;;;;;;;;;;;24.40;95.50;;;;;;5094332;28;19935;-71
2022/07/23 07:09:20;;;;;;;;;;;24.50;93.50;;;;;;5091875;28;19924;-71
2022/07/23 07:11:47;;;;;;;;;;;23.10;95.60;;;;;;5088985;28;19960;-72
2022/07/23 07:14:14;;;;;;;;;;;23.10;97.70;;;;;;5090927;28;20388;-72
2022/07/23 07:16:40;;;;;;;;;;;23.20;96.00;;;;;;5092880;28;20007;-72
2022/07/23 07:19:07;;;;;;;;;;;23.10;95.90;;;;;;5086149;28;20007;-72
2022/07/23 07:21:34;;;;;;;;;;;24.20;94.40;;;;;;5074075;28;19968;-71
2022/07/23 07:24:02;;;;;;;;;;;24.90;93.00;;;;;;5083087;28;19928;-72
2022/07/23 07:26:29;;;;;;;;;;;25.20;84.90;;;;;;5073588;28;19940;-70
2022/07/23 07:28:56;;;;;;;;;;;26.30;84.00;;;;;;5086822;28;20317;-71
2022/07/23 07:31:22;;;;;;;;;;;27.60;74.50;;;;;;5093740;28;20007;-71
2022/07/23 07:33:49;;;;;;;;;;;26.20;74.30;;;;;;5091606;28;19984;-71
2022/07/23 07:36:16;;;;;;;;;;;24.60;87.90;;;;;;5093486;28;19959;-72
2022/07/23 07:38:42;;;;;;;;;;;24.50;90.40;;;;;;5091352;28;19928;-72
2022/07/23 07:41:10;;;;;;;;;;;24.80;89.00;;;;;;5092006;28;19930;-70
2022/07/23 07:43:37;;;;;;;;;;;26.10;82.30;;;;;;5091841;28;19924;-72
2022/07/23 07:46:04;;;;;;;;;;;26.60;78.20;;;;;;5093831;28;19967;-72
2022/07/23 07:48:31;;;;;;;;;;;28.50;69.20;;;;;;5091521;28;19978;-72
2022/07/23 07:50:58;;;;;;;;;;;29.60;58.50;;;;;;5093608;28;19998;-72
2022/07/23 07:53:25;;;;;;;;;;;29.70;46.80;;;;;;5090747;28;20294;-71
2022/07/23 07:55:52;;;;;;;;;;;29.80;44.10;;;;;;5093333;28;19931;-72
2022/07/23 07:58:20;;;;;;;;;;;30.10;43.60;;;;;;5081141;28;19924;-71
2022/07/23 08:00:46;;;;;;;;;;;30.90;40.60;;;;;;5072414;28;20024;-71
2022/07/23 08:03:13;;;;;;;;;;;30.80;38.20;;;;;;5079918;28;20003;-71
2022/07/23 08:05:40;;;;;;;;;;;30.50;37.50;;;;;;5093122;28;20058;-70
2022/07/23 08:08:09;;;;;;;;;;;26.80;41.40;;;;;;5083319;28;19951;-71
2022/07/23 08:10:36;;;;;;;;;;;27.50;45.50;;;;;;5092691;28;19982;-71
2022/07/23 08:13:03;;;;;;;;;;;27.70;44.30;;;;;;5091121;28;19950;-71
2022/07/23 08:15:31;;;;;;;;;;;27.00;46.20;;;;;;5090657;28;19974;-71
2022/07/23 08:17:58;;;;;;;;;;;27.40;46.40;;;;;;5087242;28;20405;-70
2022/07/23 08:20:26;;;;;;;;;;;28.40;45.40;;;;;;5092671;28;20019;-71
2022/07/23 08:22:54;;;;;;;;;;;26.80;45.00;;;;;;5090820;28;19928;-71
2022/07/23 08:25:22;;;;;;;;;;;26.80;46.30;;;;;;5092461;28;20003;-72
2022/07/23 08:27:49;;;;;;;;;;;26.30;43.80;;;;;;5087162;28;20341;-72
2022/07/23 08:30:17;;;;;;;;;;;28.20;42.20;;;;;;5072862;28;19958;-72
2022/07/23 08:32:52;;;;;;;;;;;29.10;38.80;;;;;;5074572;28;19928;-72
2022/07/23 08:35:23;;;;;;;;;;;30.40;34.60;;;;;;5093197;28;19924;-72
2022/07/23 08:37:49;;;;;;;;;;;30.80;31.60;;;;;;5084829;28;19925;-73
2022/07/23 08:40:16;;;;;;;;;;;31.50;30.50;;;;;;5072354;28;20019;-72
2022/07/23 08:42:43;;;;;;;;;;;31.90;28.20;;;;;;5074824;28;20007;-72
2022/07/23 08:45:10;;;;;;;;;;;30.70;25.60;;;;;;5093068;28;19999;-72
2022/07/23 08:47:37;;;;;;;;;;;28.80;30.10;;;;;;5090467;28;20015;-72
2022/07/23 08:50:07;;;;;;;;;;;29.70;30.50;;;;;;5092148;28;19977;-71
2022/07/23 08:52:34;;;;;;;;;;;30.70;28.90;;;;;;5090713;28;20320;-71
2022/07/23 08:55:02;;;;;;;;;;;29.80;27.80;;;;;;5092363;28;20019;-71
2022/07/23 08:57:28;;;;;;;;;;;27.50;28.40;;;;;;5090529;28;20023;-72
2022/07/23 08:59:55;;;;;;;;;;;27.50;28.70;;;;;;5092889;28;19928;-71
2022/07/23 09:02:22;;;;;;;;;;;27.90;28.00;;;;;;5090751;28;19966;-72
2022/07/23 09:04:49;;;;;;;;;;;28.00;27.80;;;;;;5092275;28;19924;-72
2022/07/23 09:07:17;;;;;;;;;;;27.80;28.30;;;;;;5089703;28;20090;-72
2022/07/23 09:09:43;;;;;;;;;;;27.20;28.30;;;;;;5094361;28;19924;-71
2022/07/23 09:12:11;;;;;;;;;;;27.90;27.30;;;;;;5095566;28;20454;-72
2022/07/23 09:14:38;;;;;;;;;;;29.40;24.60;;;;;;5095691;28;19924;-71
2022/07/23 09:17:12;;;;;;;;;;;31.00;22.10;;;;;;5095635;28;20019;-72
2022/07/23 09:19:39;;;;;;;;;;;28.60;23.70;;;;;;5083987;28;19930;-72
2022/07/23 09:22:22;;;;;;;;;;;28.60;25.00;;;;;;5076846;28;20380;-72
2022/07/23 09:25:04;;;;;;;;;;;29.80;22.70;;;;;;5077120;28;19928;-71
2022/07/23 09:27:46;;;;;;;;;;;30.40;21.70;;;;;;5077717;28;19939;-71
2022/07/23 09:30:13;;;;;;;;;;;30.70;20.10;;;;;;5096684;28;19977;-71
2022/07/23 09:32:40;;;;;;;;;;;30.40;20.20;;;;;;5082575;28;20027;-72
2022/07/23 09:35:07;;;;;;;;;;;31.30;19.40;;;;;;5084798;28;19925;-71
2022/07/23 09:37:35;;;;;;;;;;;31.10;18.60;;;;;;5077809;28;19928;-73
2022/07/23 09:40:06;;;;;;;;;;;32.10;17.90;;;;;;5093841;28;19970;-73
2022/07/23 09:42:33;;;;;;;;;;;31.30;17.30;;;;;;5077274;28;19947;-71
2022/07/23 09:45:00;;;;;;;;;;;29.60;20.00;;;;;;5098030;28;19977;-71
2022/07/23 09:47:28;;;;;;;;;;;28.70;23.70;;;;;;5094425;28;20022;-72
2022/07/23 09:49:59;;;;;;;;;;;28.50;23.60;;;;;;5095835;28;20018;-73
2022/07/23 09:52:27;;;;;;;;;;;29.60;21.70;;;;;;5084785;28;19928;-72
2022/07/23 09:55:00;;;;;;;;;;;30.80;19.10;;;;;;5075921;28;19968;-72
2022/07/23 09:57:27;;;;;;;;;;;29.70;19.80;;;;;;5076558;28;19924;-72
2022/07/23 09:59:57;;;;;;;;;;;29.90;20.10;;;;;;5095876;28;20022;-73
2022/07/23 10:02:25;;;;;;;;;;;29.50;20.40;;;;;;5093933;28;20391;-72
2022/07/23 10:04:52;;;;;;;;;;;28.80;21.70;;;;;;5095699;28;19969;-72
2022/07/23 10:07:23;;;;;;;;;;;29.70;20.40;;;;;;5093444;28;19978;-70
2022/07/23 10:09:52;;;;;;;;;;;29.10;19.80;;;;;;5075739;28;20334;-71
2022/07/23 10:15:02;;;;;;;;;;;28.10;22.40;;;;;;5078294;28;19924;-72
2022/07/23 10:17:28;;;;;;;;;;;28.50;21.70;;;;;;5075660;28;19943;-72
2022/07/23 10:19:55;;;;;;;;;;;27.60;22.10;;;;;;5094724;28;20345;-73
2022/07/23 10:22:24;;;;;;;;;;;27.00;23.30;;;;;;5092850;28;19935;-72
2022/07/23 10:24:54;;;;;;;;;;;25.90;25.00;;;;;;5093375;28;20484;-73
2022/07/23 10:27:36;;;;;;;;;;;25.50;26.50;;;;;;5092625;28;20055;-73
2022/07/23 10:30:06;;;;;;;;;;;25.30;27.10;;;;;;5082177;28;19928;-72
2022/07/23 10:32:38;;;;;;;;;;;24.90;28.50;;;;;;5090768;28;20016;-73
2022/07/23 10:35:12;;;;;;;;;;;25.50;26.90;;;;;;5074352;28;20384;-73
2022/07/23 10:37:40;;;;;;;;;;;25.80;27.10;;;;;;5083721;28;20383;-74
2022/07/23 10:40:11;;;;;;;;;;;25.00;29.00;;;;;;5094824;28;20026;-74
2022/07/23 10:42:38;;;;;;;;;;;25.10;28.20;;;;;;5090059;28;19929;-74
2022/07/23 10:45:20;;;;;;;;;;;25.40;27.40;;;;;;5074545;28;19925;-73
2022/07/23 10:47:50;;;;;;;;;;;25.50;27.70;;;;;;5077783;28;19924;-74
2022/07/23 10:50:18;;;;;;;;;;;24.70;28.60;;;;;;5095078;28;19924;-73
2022/07/23 10:53:09;;;;;;;;;;;24.50;28.50;;;;;;5092325;28;20297;-73
2022/07/23 10:55:46;;;;;;;;;;;24.50;28.50;;;;;;5093381;28;19977;-71
2022/07/23 10:58:18;;;;;;;;;;;25.10;28.70;;;;;;5093160;28;19924;-73
2022/07/23 11:00:45;;;;;;;;;;;24.70;28.10;;;;;;5094405;28;20036;-74
2022/07/23 11:03:36;;;;;;;;;;;25.00;28.40;;;;;;5085296;28;19954;-74
2022/07/23 11:06:03;;;;;;;;;;;24.90;28.30;;;;;;5074760;28;19925;-73
2022/07/23 11:08:30;;;;;;;;;;;25.30;27.70;;;;;;5083977;28;20363;-72
2022/07/23 11:11:08;;;;;;;;;;;25.80;26.60;;;;;;5094463;28;20353;-74
2022/07/23 11:13:56;;;;;;;;;;;26.00;25.90;;;;;;5088239;28;19931;-73
2022/07/23 11:16:24;;;;;;;;;;;26.00;25.70;;;;;;5094346;28;19924;-73
2022/07/23 11:19:08;;;;;;;;;;;26.00;25.40;;;;;;5087218;28;19993;-73
2022/07/23 11:21:47;;;;;;;;;;;26.20;25.60;;;;;;5094666;28;20009;-73
2022/07/23 11:24:16;;;;;;;;;;;26.30;24.60;;;;;;5088519;28;19924;-73
2022/07/23 11:26:47;;;;;;;;;;;26.10;23.90;;;;;;5094397;28;19969;-72
2022/07/23 11:29:33;;;;;;;;;;;26.20;25.30;;;;;;5086578;28;19928;-72
2022/07/23 11:32:03;;;;;;;;;;;26.50;25.60;;;;;;5073071;28;20345;-72
2022/07/23 11:34:32;;;;;;;;;;;26.80;24.20;;;;;;5075886;28;19959;-74
2022/07/23 11:37:00;;;;;;;;;;;26.80;23.20;;;;;;5085148;28;20348;-74
2022/07/23 11:39:27;;;;;;;;;;;26.60;22.80;;;;;;5074080;28;19924;-72
2022/07/23 11:41:54;;;;;;;;;;;26.60;23.50;;;;;;5073487;28;19931;-72
2022/07/23 11:44:25;;;;;;;;;;;26.80;22.50;;;;;;5090239;28;20349;-72
2022/07/23 11:46:55;;;;;;;;;;;26.70;22.20;;;;;;5093833;28;19974;-72
2022/07/23 11:49:22;;;;;;;;;;;27.00;22.80;;;;;;5091937;28;19924;-72
2022/07/23 11:52:03;;;;;;;;;;;27.20;23.10;;;;;;5092631;28;19946;-73
2022/07/23 11:54:30;;;;;;;;;;;27.30;22.30;;;;;;5072917;28;19932;-73
2022/07/23 11:56:57;;;;;;;;;;;27.00;21.50;;;;;;5073096;28;19935;-73
2022/07/23 11:59:25;;;;;;;;;;;27.00;21.00;;;;;;5090559;28;19924;-73
2022/07/23 12:01:58;;;;;;;;;;;27.00;21.40;;;;;;5093582;28;19924;-73
2022/07/23 12:04:26;;;;;;;;;;;27.20;20.90;;;;;;5091822;28;19924;-73
2022/07/23 12:06:53;;;;;;;;;;;26.90;20.90;;;;;;5093915;28;19928;-73
2022/07/23 12:09:22;;;;;;;;;;;26.90;22.00;;;;;;5073166;28;19924;-72
2022/07/23 12:11:59;;;;;;;;;;;26.90;21.90;;;;;;5073533;28;19924;-74
2022/07/23 12:14:26;;;;;;;;;;;26.70;22.50;;;;;;5090252;28;19924;-73
2022/07/23 12:17:16;;;;;;;;;;;26.60;22.00;;;;;;5086810;28;20414;-73
2022/07/23 12:19:43;;;;;;;;;;;26.50;22.90;;;;;;5073640;28;20011;-74
2022/07/23 12:22:14;;;;;;;;;;;26.80;23.90;;;;;;5071471;28;20212;-74
2022/07/23 12:24:58;;;;;;;;;;;26.90;23.30;;;;;;5093630;28;19924;-73
2022/07/23 12:27:25;;;;;;;;;;;27.00;22.60;;;;;;5090510;28;19924;-72
2022/07/23 12:29:52;;;;;;;;;;;27.00;23.00;;;;;;5073139;28;19924;-73
2022/07/23 12:32:20;;;;;;;;;;;27.10;23.10;;;;;;5074522;28;19928;-72
2022/07/23 12:34:49;;;;;;;;;;;27.20;22.80;;;;;;5072264;28;19946;-72
2022/07/23 12:37:28;;;;;;;;;;;27.10;22.70;;;;;;5072612;28;19925;-73
2022/07/23 12:39:55;;;;;;;;;;;27.10;23.70;;;;;;5072572;28;19931;-71
2022/07/23 12:42:24;;;;;;;;;;;27.00;24.00;;;;;;5072425;28;19967;-73
2022/07/23 12:45:04;;;;;;;;;;;26.90;23.80;;;;;;5092601;28;19967;-72
2022/07/23 12:47:31;;;;;;;;;;;27.10;23.70;;;;;;5090083;28;19935;-72
2022/07/23 12:49:57;;;;;;;;;;;27.20;23.40;;;;;;5092827;28;19924;-72
2022/07/23 12:52:24;;;;;;;;;;;27.00;23.80;;;;;;5090261;28;20031;-73
2022/07/23 12:54:51;;;;;;;;;;;27.00;24.50;;;;;;5075657;28;19931;-72
2022/07/23 12:57:18;;;;;;;;;;;27.10;23.80;;;;;;5090486;28;20002;-72
2022/07/23 12:59:46;;;;;;;;;;;27.00;23.90;;;;;;5072790;28;19931;-73
2022/07/23 13:02:13;;;;;;;;;;;26.90;24.40;;;;;;5072841;28;19928;-74
2022/07/23 13:04:40;;;;;;;;;;;26.70;25.20;;;;;;5072422;28;19931;-71
2022/07/23 13:07:07;;;;;;;;;;;26.50;25.20;;;;;;5073727;28;20354;-73
2022/07/23 13:09:35;;;;;;;;;;;27.00;24.90;;;;;;5091118;28;20359;-75
2022/07/23 13:12:01;;;;;;;;;;;26.90;25.00;;;;;;5092144;28;20151;-74
2022/07/23 13:14:29;;;;;;;;;;;26.50;25.50;;;;;;5089935;28;19980;-72
2022/07/23 13:16:57;;;;;;;;;;;26.90;26.10;;;;;;5085600;28;20019;-72
2022/07/23 13:19:24;;;;;;;;;;;27.30;25.60;;;;;;5087716;28;20368;-73
2022/07/23 13:21:51;;;;;;;;;;;27.50;24.30;;;;;;5092163;28;19924;-73
2022/07/23 13:24:18;;;;;;;;;;;27.40;24.40;;;;;;5090123;28;19947;-73
2022/07/23 13:26:46;;;;;;;;;;;27.10;24.40;;;;;;5081185;28;19924;-70
2022/07/23 13:29:13;;;;;;;;;;;27.10;25.00;;;;;;5087566;28;20384;-72
2022/07/23 13:31:39;;;;;;;;;;;27.20;25.20;;;;;;5092541;28;19924;-71
2022/07/23 13:34:08;;;;;;;;;;;27.40;25.30;;;;;;5075256;28;20019;-72
2022/07/23 13:36:34;;;;;;;;;;;27.80;24.30;;;;;;5071668;28;20008;-72
2022/07/23 13:39:01;;;;;;;;;;;27.90;23.80;;;;;;5085487;28;20305;-72
2022/07/23 13:41:28;;;;;;;;;;;27.90;23.80;;;;;;5091801;28;20018;-72
2022/07/23 13:43:55;;;;;;;;;;;27.80;23.60;;;;;;5089740;28;19924;-72
2022/07/23 13:46:22;;;;;;;;;;;27.40;24.20;;;;;;5075082;28;19931;-71
2022/07/23 13:48:49;;;;;;;;;;;27.60;25.10;;;;;;5083933;28;20458;-72
2022/07/23 13:51:17;;;;;;;;;;;27.90;24.80;;;;;;5090842;28;19963;-73
2022/07/23 13:53:44;;;;;;;;;;;28.40;24.80;;;;;;5071858;28;19924;-72
2022/07/23 13:56:11;;;;;;;;;;;28.70;23.90;;;;;;5074058;28;20011;-72
2022/07/23 13:58:40;;;;;;;;;;;28.60;23.70;;;;;;5084955;28;19967;-71
2022/07/23 14:01:07;;;;;;;;;;;28.50;24.00;;;;;;5095588;28;19924;-72
2022/07/23 14:03:33;;;;;;;;;;;28.40;23.50;;;;;;5093229;28;19950;-72
2022/07/23 14:06:00;;;;;;;;;;;28.30;24.80;;;;;;5095821;28;19970;-72
2022/07/23 14:08:28;;;;;;;;;;;28.60;24.40;;;;;;5093710;28;19924;-72
2022/07/23 14:10:55;;;;;;;;;;;28.70;23.40;;;;;;5095726;28;19930;-73
2022/07/23 14:13:22;;;;;;;;;;;28.70;23.80;;;;;;5086823;28;19924;-72
2022/07/23 14:15:49;;;;;;;;;;;28.60;24.00;;;;;;5095254;28;20013;-72
2022/07/23 14:18:16;;;;;;;;;;;28.10;24.60;;;;;;5093303;28;19924;-72
2022/07/23 14:20:43;;;;;;;;;;;28.10;24.60;;;;;;5095519;28;19928;-71
2022/07/23 14:23:10;;;;;;;;;;;28.10;25.00;;;;;;5093296;28;19932;-72